Data for 01/20/2011

Time Sea-Level Adjusted Pressure Absolute Pressure Temperature Relative Humidity Dew Point   
(mb) (inHg) (mb) (inHg) (C) (F) (%) (C) (F)
00:05 1024 30.24 853 25.19 -7 19.4 58 -13.9 6.9
00:10 1024 30.24 853 25.19 -7.1 19.2 58 -14 6.8
00:15 1024 30.24 853 25.19 -7.4 18.7 59 -14.1 6.7
00:20 1024 30.24 853 25.19 -7.5 18.6 60 -14 6.8
00:25 1024 30.24 853 25.19 -7.4 18.7 60 -13.8 7.1
00:30 1024 30.24 853 25.19 -7.4 18.7 61 -13.7 7.4
00:35 1024 30.24 853 25.19 -7.5 18.5 63 -13.4 7.8
00:40 1024 30.24 853 25.19 -7.6 18.3 63 -13.4 7.8
00:45 1024 30.24 853 25.19 -7.5 18.4 62 -13.7 7.3
00:50 1024 30.24 853 25.19 -7.5 18.4 61 -13.9 7
00:55 1024 30.24 853 25.19 -7.6 18.3 60 -14.1 6.6
01:00 1024 30.24 853 25.19 -7.7 18.1 59 -14.4 6.1
01:05 1024 30.24 853 25.19 -7.8 17.9 60 -14.4 6.1
01:10 1024 30.24 853 25.19 -8 17.6 59 -14.6 5.7
01:15 1024 30.24 853 25.19 -8 17.6 59 -14.6 5.7
01:20 1024 30.24 853 25.19 -7.9 17.9 59 -14.6 5.7
01:25 1024 30.24 853 25.19 -7.9 17.7 60 -14.4 6.1
01:30 1024 30.24 853 25.19 -8.1 17.4 60 -14.6 5.6
01:35 1024 30.24 853 25.19 -8.2 17.3 61 -14.5 5.9
01:40 1024 30.24 853 25.19 -8.3 17 62 -14.4 6.1
01:45 1024 30.24 853 25.19 -8.4 16.9 59 -15 5
01:50 1024 30.24 853 25.19 -8.3 17 59 -15.1 4.9
01:55 1024 30.24 853 25.19 -8.1 17.4 57 -15.1 4.8
02:00 1024 30.24 853 25.19 -7.8 18.1 56 -15 5
02:05 1024 30.24 853 25.19 -7.8 18 58 -14.6 5.7
02:10 1024 30.24 853 25.19 -8.2 17.2 60 -14.6 5.7
02:15 1024 30.24 853 25.19 -8.7 16.3 62 -14.7 5.6
02:20 1024 30.24 854 25.22 -8.9 15.9 62 -14.9 5.1
02:25 1025 30.27 854 25.22 -9 15.9 62 -15 5.1
02:30 1025 30.27 854 25.22 -8.9 16.1 61 -15.2 4.7
02:35 1025 30.27 854 25.22 -8.8 16.3 60 -15.1 4.8
02:40 1025 30.27 854 25.22 -8.7 16.3 60 -15.1 4.8
02:45 1025 30.27 854 25.22 -8.8 16.2 60 -15.1 4.8
02:50 1025 30.27 854 25.22 -8.8 16.1 61 -15.1 4.8
02:55 1025 30.27 854 25.22 -8.9 16.1 61 -15.1 4.8
03:00 1025 30.27 854 25.22 -8.8 16.1 61 -15 5.1
03:05 1025 30.27 854 25.22 -9 15.7 62 -15 5
03:10 1024 30.24 854 25.22 -9.3 15.4 63 -15 5
03:15 1024 30.24 854 25.22 -9.4 15.1 64 -15 5.1
03:20 1025 30.27 854 25.22 -9.7 14.6 65 -15 4.9
03:25 1025 30.27 854 25.22 -9.8 14.3 64 -15.3 4.4
03:30 1025 30.27 854 25.22 -9.8 14.3 66 -15.1 4.8
03:35 1025 30.27 854 25.22 -9.8 14.4 66 -14.9 5.1
03:40 1025 30.27 854 25.22 -9.5 15 65 -14.9 5.2
03:45 1025 30.27 854 25.22 -9.2 15.5 64 -14.7 5.5
03:50 1025 30.27 854 25.22 -9.1 15.6 64 -14.7 5.5
03:55 1025 30.27 854 25.22 -9.1 15.6 64 -14.7 5.5
04:00 1025 30.27 854 25.22 -9.9 14.2 65 -15.3 4.5
04:05 1025 30.27 854 25.22 -11.5 11.3 70 -16 3.2
04:10 1025 30.27 854 25.22 -11.5 11.3 71 -15.8 3.5
04:15 1025 30.27 854 25.22 -11.3 11.7 70 -15.8 3.6
04:20 1025 30.27 854 25.22 -11.1 12 69 -15.7 3.8
04:25 1025 30.27 854 25.22 -11.3 11.8 72 -15.4 4.3
04:30 1025 30.27 854 25.22 -11.1 12 70 -15.5 4.1
04:35 1024 30.24 854 25.22 -10.6 13 69 -15.1 4.7
04:40 1024 30.24 854 25.22 -10.2 13.7 68 -15 5
04:45 1024 30.24 854 25.22 -11.3 11.6 76 -14.8 5.3
04:50 1024 30.24 853 25.19 -11.3 11.6 73 -15.3 4.5
04:55 1024 30.24 853 25.19 -11.7 11 75 -15.3 4.5
05:00 1024 30.24 853 25.19 -11.7 10.9 75 -15.3 4.5
05:05 1024 30.24 853 25.19 -11.6 11.1 74 -15.3 4.5
05:10 1024 30.24 853 25.19 -11.9 10.6 76 -15.3 4.4
05:15 1024 30.24 853 25.19 -11.9 10.6 74 -15.7 3.8
05:20 1024 30.24 853 25.19 -11.6 11.1 72 -15.6 3.8
05:25 1024 30.24 853 25.19 -11.6 11.1 73 -15.6 3.9
05:30 1024 30.24 853 25.19 -11.4 11.5 72 -15.6 4
05:35 1024 30.24 853 25.19 -11.2 11.8 71 -15.5 4
05:40 1024 30.24 853 25.19 -11.5 11.3 72 -15.5 4
05:45 1024 30.24 853 25.19 -11.6 11.1 72 -15.7 3.8
05:50 1023 30.21 853 25.19 -11.7 10.9 72 -15.8 3.6
05:55 1023 30.21 852 25.16 -11.9 10.6 74 -15.7 3.8
06:00 1023 30.21 852 25.16 -12.1 10.2 75 -15.7 3.7
06:05 1023 30.21 852 25.16 -12.1 10.3 73 -15.9 3.3
06:10 1023 30.21 852 25.16 -12.3 9.8 75 -15.9 3.4
06:15 1023 30.21 852 25.16 -12.3 9.9 73 -16.1 2.9
06:20 1023 30.21 852 25.16 -12.2 10.1 75 -15.7 3.8
06:25 1023 30.21 852 25.16 -12 10.3 75 -15.6 3.9
06:30 1023 30.21 852 25.16 -11.7 11 74 -15.4 4.2
06:35 1022 30.18 852 25.16 -11.2 11.9 72 -15.3 4.5
06:40 1022 30.18 852 25.16 -11.2 11.9 72 -15.4 4.3
06:45 1022 30.18 851 25.13 -11 12.3 71 -15.2 4.6
06:50 1022 30.18 851 25.13 -11 12.3 73 -14.8 5.3
06:55 1022 30.18 851 25.13 -10.7 12.8 68 -15.4 4.3
07:00 1022 30.18 851 25.13 -11 12.3 74 -14.7 5.5
07:05 1022 30.18 851 25.13 -11.2 11.8 68 -16 3.2
07:10 1022 30.18 851 25.13 -11.1 12 69 -15.6 3.9
07:15 1022 30.18 851 25.13 -11.3 11.6 73 -15.3 4.4
07:20 1022 30.18 851 25.13 -11.2 11.8 70 -15.7 3.8
07:25 1022 30.18 851 25.13 -11.1 12.1 70 -15.5 4
07:30 1022 30.18 851 25.13 -11.5 11.3 70 -15.9 3.4
07:35 1022 30.18 851 25.13 -11.8 10.8 71 -16.1 3.1
07:40 1022 30.18 851 25.13 -11.6 11 73 -15.6 4
07:45 1022 30.18 851 25.13 -11.7 11 71 -15.9 3.3
07:50 1022 30.18 851 25.13 -11.7 11 71 -15.9 3.3
07:55 1022 30.18 851 25.13 -12.1 10.2 71 -16.4 2.5
08:00 1021 30.15 851 25.13 -12.2 10.1 74 -16 3.3
08:05 1021 30.15 851 25.13 -11.6 11.2 73 -15.5 4.1
08:10 1021 30.15 850 25.1 -11.3 11.8 74 -15.1 4.8
08:15 1021 30.15 850 25.1 -11.1 12.1 72 -15.1 4.8
08:20 1021 30.15 851 25.13 -10.9 12.4 71 -15.1 4.8
08:25 1022 30.18 851 25.13 -11 12.2 70 -15.4 4.3
08:30 1021 30.15 851 25.13 -10.6 12.9 75 -14.3 6.2
08:35 1021 30.15 851 25.13 -10.4 13.2 70 -15 5.1
08:40 1021 30.15 851 25.13 -10.5 13.1 69 -15.1 4.8
08:45 1021 30.15 851 25.13 -10.4 13.2 70 -14.9 5.1
08:50 1022 30.18 851 25.13 -10.2 13.6 69 -14.9 5.2
08:55 1022 30.18 851 25.13 -9.7 14.5 69 -14.3 6.2
09:00 1022 30.18 851 25.13 -9.6 14.8 70 -14 6.8
09:05 1021 30.15 851 25.13 -9.9 14.2 71 -14.3 6.3
09:10 1022 30.18 851 25.13 -9.9 14.2 71 -14.3 6.3
09:15 1022 30.18 851 25.13 -9.7 14.5 68 -14.6 5.7
09:20 1022 30.18 851 25.13 -9.6 14.8 65 -15 5
09:25 1022 30.18 851 25.13 -9.4 15 63 -15.2 4.6
09:30 1022 30.18 851 25.13 -9.6 14.8 64 -15.1 4.8
09:35 1021 30.15 851 25.13 -9.7 14.6 64 -15.3 4.4
09:40 1021 30.15 851 25.13 -9.6 14.7 64 -15.3 4.5
09:45 1021 30.15 851 25.13 -9.5 14.9 67 -14.5 5.9
09:50 1021 30.15 851 25.13 -9.2 15.4 66 -14.5 5.9
09:55 1022 30.18 851 25.13 -8.7 16.4 63 -14.5 5.9
10:00 1021 30.15 851 25.13 -8.3 17 60 -14.8 5.4
10:05 1021 30.15 851 25.13 -8.2 17.2 61 -14.4 6.1
10:10 1021 30.15 850 25.1 -7.9 17.7 61 -14.2 6.5
10:15 1021 30.15 850 25.1 -7.7 18.1 59 -14.4 6.1
10:20 1021 30.15 850 25.1 -7.8 18 60 -14.2 6.4
10:25 1021 30.15 850 25.1 -7.6 18.4 59 -14.3 6.3
10:30 1021 30.15 850 25.1 -7.4 18.7 58 -14.2 6.4
10:35 1021 30.15 850 25.1 -7.2 19 54 -15 5
10:40 1020 30.12 850 25.1 -7 19.4 57 -14.1 6.5
10:45 1020 30.12 849 25.07 -6.8 19.8 57 -13.9 7
10:50 1020 30.12 849 25.07 -6.6 20.1 57 -13.7 7.3
10:55 1020 30.12 849 25.07 -6.7 20 58 -13.5 7.6
11:00 1020 30.12 849 25.07 -6.6 20.2 58 -13.6 7.6
11:05 1020 30.12 849 25.07 -6.4 20.6 54 -14.3 6.2
11:10 1019 30.09 849 25.07 -6.5 20.3 56 -13.8 7.2
11:15 1019 30.09 848 25.04 -6.7 20 56 -14 6.9
11:20 1019 30.09 848 25.04 -6.7 19.9 56 -14.1 6.6
11:25 1019 30.09 848 25.04 -6.4 20.4 55 -14 6.7
11:30 1019 30.09 848 25.04 -6.6 20.1 56 -13.9 6.9
11:35 1019 30.09 848 25.04 -7 19.4 58 -13.9 6.9
11:40 1019 30.09 848 25.04 -6.9 19.5 57 -14.1 6.6
11:45 1019 30.09 848 25.04 -6.9 19.6 58 -13.9 7
11:50 1019 30.09 848 25.04 -6.6 20.2 57 -13.7 7.3
11:55 1019 30.09 848 25.04 -6.5 20.3 58 -13.4 7.8
12:00 1019 30.09 848 25.04 -6.3 20.6 53 -14.5 6
12:05 1019 30.09 848 25.04 -6.5 20.3 56 -13.9 7
12:10 1018 30.06 847 25.01 -6.3 20.7 54 -14.2 6.4
12:15 1018 30.06 847 25.01 -6 21.3 53 -14 6.8
12:20 1018 30.06 847 25.01 -5.7 21.7 55 -13.4 7.9
12:25 1018 30.06 847 25.01 -5.6 21.8 57 -12.9 8.7
12:30 1018 30.06 847 25.01 -5.4 22.3 53 -13.6 7.5
12:35 1018 30.06 847 25.01 -5.2 22.6 53 -13.4 8
12:40 1017 30.03 847 25.01 -5.1 22.9 51 -13.7 7.4
12:45 1017 30.03 847 25.01 -5.3 22.5 54 -13.3 8.1
12:50 1017 30.03 846 24.98 -5.2 22.6 53 -13.3 8.1
12:55 1017 30.03 846 24.98 -5.6 22 53 -13.6 7.5
13:00 1017 30.03 846 24.98 -5.5 22.1 50 -14.3 6.3
13:05 1017 30.03 846 24.98 -5.5 22 52 -13.9 6.9
13:10 1016 30 846 24.98 -5.6 21.9 53 -13.7 7.4
13:15 1016 30 845 24.95 -5.4 22.2 53 -13.6 7.5
13:20 1016 30 845 24.95 -5.2 22.6 53 -13.3 8.1
13:25 1016 30 845 24.95 -4.5 23.9 51 -13.1 8.4
13:30 1016 30 845 24.95 -4.3 24.3 50 -13.1 8.4
13:35 1016 30 845 24.95 -4.2 24.4 51 -13 8.6
13:40 1016 30 845 24.95 -4.1 24.6 53 -12.3 9.9
13:45 1016 30 845 24.95 -4.1 24.7 51 -12.7 9.2
13:50 1016 30 845 24.95 -4.2 24.4 52 -12.7 9.1
13:55 1016 30 845 24.95 -4.5 23.9 54 -12.4 9.7
14:00 1016 30 845 24.95 -4.5 23.9 54 -12.4 9.7
14:05 1016 30 845 24.95 -4.5 23.8 51 -13.2 8.3
14:10 1016 30 845 24.95 -4.7 23.6 51 -13.3 8
14:15 1016 30 845 24.95 -4.4 24 53 -12.6 9.4
14:20 1016 30 845 24.95 -4.5 23.9 52 -12.8 8.9
14:25 1016 30 845 24.95 -4.2 24.4 51 -13 8.5
14:30 1016 30 845 24.95 -4 24.8 50 -13 8.6
14:35 1016 30 845 24.95 -4.2 24.5 50 -13.1 8.5
14:40 1016 30 845 24.95 -4.2 24.5 48 -13.7 7.3
14:45 1016 30 845 24.95 -4.1 24.6 50 -13.1 8.4
14:50 1016 30 845 24.95 -3.7 25.3 49 -12.8 8.9
14:55 1015 29.97 845 24.95 -3.6 25.5 50 -12.6 9.2
15:00 1015 29.97 845 24.95 -3.7 25.4 50 -12.6 9.4
15:05 1015 29.97 845 24.95 -3.5 25.6 50 -12.6 9.3
15:10 1015 29.97 845 24.95 -3.4 25.8 50 -12.5 9.5
15:15 1015 29.97 845 24.95 -3.2 26.3 50 -12.2 10
15:20 1015 29.97 845 24.95 -2.7 27.1 45 -13 8.6
15:25 1015 29.97 845 24.95 -2.9 26.8 46 -12.8 8.9
15:30 1015 29.97 845 24.95 -2.9 26.9 48 -12.5 9.5
15:35 1015 29.97 845 24.95 -2.9 26.9 48 -12.3 9.9
15:40 1015 29.97 845 24.95 -2.9 26.7 43 -13.9 6.9
15:45 1015 29.97 845 24.95 -2.9 26.9 50 -12 10.4
15:50 1015 29.97 844 24.92 -2.8 27 51 -11.6 11.2
15:55 1015 29.97 844 24.92 -2.8 26.9 51 -11.7 10.9
16:00 1015 29.97 844 24.92 -3 26.7 52 -11.4 11.5
16:05 1015 29.97 844 24.92 -3 26.6 53 -11.2 11.9
16:10 1015 29.97 844 24.92 -3 26.7 55 -10.8 12.5
16:15 1015 29.97 844 24.92 -2.9 26.8 58 -10.1 13.8
16:20 1015 29.97 844 24.92 -2.9 26.8 55 -10.6 12.9
16:25 1015 29.97 844 24.92 -2.8 27 53 -11 12.2
16:30 1015 29.97 844 24.92 -2.5 27.4 51 -11.5 11.4
16:35 1015 29.97 844 24.92 -2.3 27.8 50 -11.5 11.4
16:40 1015 29.97 844 24.92 -2.2 28 55 -10.2 13.7
16:45 1015 29.97 844 24.92 -2.3 27.8 50 -11.4 11.6
16:50 1015 29.97 844 24.92 -2.1 28.2 46 -12.3 9.9
16:55 1015 29.97 844 24.92 -1.8 28.8 47 -11.6 11.1
17:00 1015 29.97 844 24.92 -1.3 29.7 47 -11.3 11.6
17:05 1015 29.97 844 24.92 -1.3 29.7 50 -10.5 13.1
17:10 1015 29.97 844 24.92 -1.5 29.4 53 -9.8 14.4
17:15 1015 29.97 844 24.92 -1.8 28.8 52 -10.4 13.3
17:20 1015 29.97 844 24.92 -1.3 29.6 52 -9.9 14.1
17:25 1015 29.97 844 24.92 -1.3 29.6 54 -9.5 14.9
17:30 1014 29.94 844 24.92 -1.6 29 54 -9.8 14.4
17:35 1014 29.94 843 24.89 -1.9 28.6 54 -9.9 14.1
17:40 1014 29.94 844 24.92 -1.6 29.1 56 -9.2 15.4
17:45 1014 29.94 843 24.89 -1.5 29.3 54 -9.7 14.6
17:50 1014 29.94 843 24.89 -1.5 29.3 53 -9.8 14.3
17:55 1014 29.94 843 24.89 -1.5 29.4 50 -10.6 12.9
18:00 1014 29.94 843 24.89 -1.3 29.7 51 -10.1 13.8
18:05 1014 29.94 843 24.89 -1.1 30 52 -9.7 14.5
18:10 1014 29.94 843 24.89 -0.9 30.4 50 -10 14
18:15 1014 29.94 843 24.89 -0.6 30.9 52 -9.2 15.4
18:20 1014 29.94 843 24.89 -0.5 31 53 -9 15.9
18:25 1014 29.94 843 24.89 -0.7 30.7 61 -7.4 18.6
18:30 1014 29.94 843 24.89 -0.9 30.3 58 -8.2 17.2
18:35 1014 29.94 843 24.89 -0.6 31 55 -8.4 16.8
18:40 1014 29.94 843 24.89 0 32.1 53 -8.4 17
18:45 1014 29.94 843 24.89 0.1 32.1 57 -7.6 18.4
18:50 1014 29.94 843 24.89 -0 32 57 -7.5 18.5
18:55 1014 29.94 843 24.89 -0.2 31.7 58 -7.5 18.5
19:00 1014 29.94 843 24.89 -0.3 31.4 59 -7.5 18.6
19:05 1014 29.94 843 24.89 -0.3 31.5 58 -7.5 18.5
19:10 1014 29.94 844 24.92 -0.3 31.5 59 -7.4 18.8
19:15 1014 29.94 844 24.92 -0.4 31.3 60 -7.2 19
19:20 1014 29.94 844 24.92 -0.4 31.3 60 -7.4 18.7
19:25 1015 29.97 844 24.92 -0.3 31.4 58 -7.5 18.5
19:30 1015 29.97 844 24.92 -0.3 31.4 59 -7.5 18.6
19:35 1015 29.97 844 24.92 -0.3 31.5 57 -7.9 17.8
19:40 1015 29.97 844 24.92 -0 32 57 -7.6 18.3
19:45 1015 29.97 844 24.92 0 32.1 56 -7.7 18.1
19:50 1015 29.97 844 24.92 0.1 32.1 57 -7.5 18.4
19:55 1015 29.97 845 24.95 -0.2 31.6 59 -7.2 19
20:00 1016 30 845 24.95 -0.3 31.4 59 -7.3 18.8
20:05 1016 30 845 24.95 -0.3 31.4 59 -7.3 18.9
20:10 1016 30 845 24.95 -0.2 31.6 59 -7.4 18.7
20:15 1015 29.97 844 24.92 -0.2 31.7 60 -7 19.4
20:20 1015 29.97 844 24.92 -0.3 31.5 60 -7.1 19.2
20:25 1015 29.97 844 24.92 -0.5 31.1 60 -7.3 18.8
20:30 1015 29.97 845 24.95 -0.5 31.1 62 -6.9 19.6
20:35 1016 30 845 24.95 -0.5 31.1 62 -6.9 19.6
20:40 1016 30 845 24.95 -0.6 31 61 -7.2 19
20:45 1016 30 845 24.95 -0.5 31 62 -7 19.3
20:50 1015 29.97 845 24.95 -0.5 31.2 63 -6.6 20.1
20:55 1015 29.97 845 24.95 -0.4 31.2 62 -6.8 19.7
21:00 1015 29.97 845 24.95 -0.5 31 62 -7 19.4
21:05 1015 29.97 845 24.95 -0.5 31.2 62 -6.9 19.7
21:10 1015 29.97 845 24.95 -0.3 31.5 64 -6.4 20.6
21:15 1016 30 845 24.95 -0.4 31.4 64 -6.3 20.6
21:20 1016 30 845 24.95 -0.4 31.2 62 -6.7 19.9
21:25 1016 30 845 24.95 0.1 32.1 57 -7.4 18.6
21:30 1016 30 845 24.95 0.5 32.9 58 -6.8 19.8
21:35 1016 30 845 24.95 0.9 33.6 58 -6.5 20.4
21:40 1016 30 845 24.95 1.3 34.4 58 -6.1 20.9
21:45 1016 30 845 24.95 1.5 34.7 58 -5.9 21.4
21:50 1016 30 845 24.95 1.3 34.4 59 -5.7 21.7
21:55 1016 30 845 24.95 1.2 34.1 60 -5.7 21.8
22:00 1016 30 845 24.95 1.1 34 60 -5.7 21.7
22:05 1016 30 845 24.95 1.3 34.3 59 -5.9 21.5
22:10 1016 30 845 24.95 1.5 34.8 60 -5.4 22.3
22:15 1016 30 845 24.95 1.4 34.5 61 -5.3 22.4
22:20 1016 30 845 24.95 1.2 34.2 61 -5.5 22.1
22:25 1016 30 845 24.95 1.2 34.2 61 -5.4 22.2
22:30 1016 30 845 24.95 1.2 34.1 63 -5 23
22:35 1016 30 845 24.95 1 33.8 63 -5.3 22.4
22:40 1016 30 845 24.95 0.9 33.7 62 -5.6 21.9
22:45 1016 30 845 24.95 0.9 33.6 63 -5.3 22.5
22:50 1016 30 845 24.95 0.6 33.1 64 -5.4 22.3
22:55 1016 30 845 24.95 0.5 32.9 64 -5.4 22.2
23:00 1016 30 845 24.95 0.8 33.4 63 -5.5 22.1
23:05 1016 30 845 24.95 0.8 33.4 62 -5.6 21.9
23:10 1016 30 845 24.95 0.9 33.6 62 -5.5 22.1
23:15 1016 30 845 24.95 0.9 33.6 61 -5.8 21.6
23:20 1016 30 845 24.95 1.1 34 61 -5.5 22.1
23:25 1016 30 845 24.95 1.1 34 62 -5.4 22.3
23:30 1016 30 845 24.95 1 33.7 63 -5.3 22.5
23:35 1016 30 846 24.98 0.8 33.4 65 -5.1 22.8
23:40 1016 30 845 24.95 0.6 33.1 65 -5.1 22.7
23:45 1016 30 846 24.98 0.7 33.2 64 -5.5 22.2
23:50 1016 30 846 24.98 0.7 33.2 64 -5.3 22.4
23:55 1016 30 846 24.98 0.6 33.1 63 -5.6 22
24:00 1017 30.03 846 24.98 0.5 33 64 -5.4 22.3